sensor_id;sensor_type;location;lat;lon;timestamp;P1;durP1;ratioP1;P2;durP2;ratioP2
52786;SDS011;38661;53.152;5.846;2023-03-12T00:00:38;7.82;;;4.45;;
52786;SDS011;38661;53.152;5.846;2023-03-12T00:03:04;11.52;;;7.50;;
52786;SDS011;38661;53.152;5.846;2023-03-12T00:05:30;11.45;;;6.75;;
52786;SDS011;38661;53.152;5.846;2023-03-12T00:07:56;9.15;;;4.22;;
52786;SDS011;38661;53.152;5.846;2023-03-12T00:10:26;7.82;;;4.32;;
52786;SDS011;38661;53.152;5.846;2023-03-12T00:12:52;6.00;;;4.57;;
52786;SDS011;38661;53.152;5.846;2023-03-12T00:15:19;11.32;;;4.45;;
52786;SDS011;38661;53.152;5.846;2023-03-12T00:17:45;8.80;;;4.47;;
52786;SDS011;38661;53.152;5.846;2023-03-12T00:20:10;9.30;;;4.60;;
52786;SDS011;38661;53.152;5.846;2023-03-12T00:22:37;8.40;;;4.57;;
52786;SDS011;38661;53.152;5.846;2023-03-12T00:25:03;7.78;;;4.60;;
52786;SDS011;38661;53.152;5.846;2023-03-12T00:27:29;12.27;;;4.18;;
52786;SDS011;38661;53.152;5.846;2023-03-12T00:29:55;9.68;;;5.20;;
52786;SDS011;38661;53.152;5.846;2023-03-12T00:32:21;9.48;;;5.57;;
52786;SDS011;38661;53.152;5.846;2023-03-12T00:34:50;8.60;;;5.72;;
52786;SDS011;38661;53.152;5.846;2023-03-12T00:37:17;11.95;;;5.95;;
52786;SDS011;38661;53.152;5.846;2023-03-12T00:39:42;8.30;;;6.40;;
52786;SDS011;38661;53.152;5.846;2023-03-12T00:42:08;9.45;;;6.93;;
52786;SDS011;38661;53.152;5.846;2023-03-12T00:44:34;10.23;;;6.90;;
52786;SDS011;38661;53.152;5.846;2023-03-12T00:46:59;9.90;;;6.90;;
52786;SDS011;38661;53.152;5.846;2023-03-12T00:49:25;11.32;;;6.95;;
52786;SDS011;38661;53.152;5.846;2023-03-12T00:51:51;12.00;;;7.63;;
52786;SDS011;38661;53.152;5.846;2023-03-12T00:54:18;10.50;;;7.30;;
52786;SDS011;38661;53.152;5.846;2023-03-12T00:56:44;9.68;;;7.68;;
52786;SDS011;38661;53.152;5.846;2023-03-12T00:59:11;11.90;;;8.77;;
52786;SDS011;38661;53.152;5.846;2023-03-12T01:01:37;15.82;;;8.50;;
52786;SDS011;38661;53.152;5.846;2023-03-12T01:04:03;10.43;;;7.57;;
52786;SDS011;38661;53.152;5.846;2023-03-12T01:06:29;11.07;;;7.78;;
52786;SDS011;38661;53.152;5.846;2023-03-12T01:08:55;9.85;;;7.05;;
52786;SDS011;38661;53.152;5.846;2023-03-12T01:11:20;15.45;;;7.53;;
52786;SDS011;38661;53.152;5.846;2023-03-12T01:13:47;11.20;;;7.60;;
52786;SDS011;38661;53.152;5.846;2023-03-12T01:16:13;17.13;;;8.70;;
52786;SDS011;38661;53.152;5.846;2023-03-12T01:18:39;13.90;;;8.20;;
52786;SDS011;38661;53.152;5.846;2023-03-12T01:21:05;10.70;;;7.47;;
52786;SDS011;38661;53.152;5.846;2023-03-12T01:23:31;12.48;;;8.02;;
52786;SDS011;38661;53.152;5.846;2023-03-12T01:25:56;11.63;;;7.00;;
52786;SDS011;38661;53.152;5.846;2023-03-12T01:28:24;11.93;;;7.45;;
52786;SDS011;38661;53.152;5.846;2023-03-12T01:30:51;11.45;;;7.53;;
52786;SDS011;38661;53.152;5.846;2023-03-12T01:33:17;11.15;;;6.97;;
52786;SDS011;38661;53.152;5.846;2023-03-12T01:35:43;13.02;;;8.45;;
52786;SDS011;38661;53.152;5.846;2023-03-12T01:38:11;12.57;;;7.32;;
52786;SDS011;38661;53.152;5.846;2023-03-12T01:40:38;11.80;;;6.78;;
52786;SDS011;38661;53.152;5.846;2023-03-12T01:45:55;10.32;;;6.20;;
52786;SDS011;38661;53.152;5.846;2023-03-12T01:48:23;11.30;;;6.60;;
52786;SDS011;38661;53.152;5.846;2023-03-12T01:50:50;10.77;;;6.85;;
52786;SDS011;38661;53.152;5.846;2023-03-12T01:53:16;10.63;;;6.75;;
52786;SDS011;38661;53.152;5.846;2023-03-12T01:55:42;9.93;;;6.55;;
52786;SDS011;38661;53.152;5.846;2023-03-12T01:58:08;8.85;;;6.50;;
52786;SDS011;38661;53.152;5.846;2023-03-12T02:00:34;10.30;;;6.70;;
52786;SDS011;38661;53.152;5.846;2023-03-12T02:03:01;10.70;;;6.35;;
52786;SDS011;38661;53.152;5.846;2023-03-12T02:05:32;11.07;;;6.20;;
52786;SDS011;38661;53.152;5.846;2023-03-12T02:08:11;9.05;;;6.47;;
52786;SDS011;38661;53.152;5.846;2023-03-12T02:10:38;9.75;;;6.10;;
52786;SDS011;38661;53.152;5.846;2023-03-12T02:13:04;8.25;;;5.45;;
52786;SDS011;38661;53.152;5.846;2023-03-12T02:15:31;8.32;;;5.45;;
52786;SDS011;38661;53.152;5.846;2023-03-12T02:17:58;9.00;;;5.30;;
52786;SDS011;38661;53.152;5.846;2023-03-12T02:20:36;10.80;;;5.75;;
52786;SDS011;38661;53.152;5.846;2023-03-12T02:23:26;8.95;;;5.15;;
52786;SDS011;38661;53.152;5.846;2023-03-12T02:25:56;8.07;;;5.10;;
52786;SDS011;38661;53.152;5.846;2023-03-12T02:28:24;9.13;;;4.93;;
52786;SDS011;38661;53.152;5.846;2023-03-12T02:30:53;11.07;;;5.80;;
52786;SDS011;38661;53.152;5.846;2023-03-12T02:33:22;7.00;;;5.05;;
52786;SDS011;38661;53.152;5.846;2023-03-12T02:35:48;8.65;;;5.05;;
52786;SDS011;38661;53.152;5.846;2023-03-12T02:38:33;9.98;;;5.30;;
52786;SDS011;38661;53.152;5.846;2023-03-12T02:41:15;8.70;;;5.38;;
52786;SDS011;38661;53.152;5.846;2023-03-12T02:43:48;9.35;;;5.57;;
52786;SDS011;38661;53.152;5.846;2023-03-12T02:48:47;9.25;;;6.78;;
52786;SDS011;38661;53.152;5.846;2023-03-12T02:51:13;9.93;;;5.60;;
52786;SDS011;38661;53.152;5.846;2023-03-12T02:53:39;12.32;;;6.03;;
52786;SDS011;38661;53.152;5.846;2023-03-12T02:56:05;7.75;;;5.03;;
52786;SDS011;38661;53.152;5.846;2023-03-12T02:58:31;7.47;;;4.68;;
52786;SDS011;38661;53.152;5.846;2023-03-12T03:00:57;7.00;;;5.10;;
52786;SDS011;38661;53.152;5.846;2023-03-12T03:03:23;8.02;;;5.05;;
52786;SDS011;38661;53.152;5.846;2023-03-12T03:05:48;11.05;;;5.53;;
52786;SDS011;38661;53.152;5.846;2023-03-12T03:08:14;9.13;;;5.30;;
52786;SDS011;38661;53.152;5.846;2023-03-12T03:10:40;8.65;;;5.72;;
52786;SDS011;38661;53.152;5.846;2023-03-12T03:13:06;6.10;;;4.35;;
52786;SDS011;38661;53.152;5.846;2023-03-12T03:15:32;8.90;;;5.63;;
52786;SDS011;38661;53.152;5.846;2023-03-12T03:17:58;9.35;;;4.70;;
52786;SDS011;38661;53.152;5.846;2023-03-12T03:20:23;6.45;;;4.78;;
52786;SDS011;38661;53.152;5.846;2023-03-12T03:22:50;8.88;;;5.93;;
52786;SDS011;38661;53.152;5.846;2023-03-12T03:25:16;10.15;;;5.18;;
52786;SDS011;38661;53.152;5.846;2023-03-12T03:27:46;8.40;;;5.05;;
52786;SDS011;38661;53.152;5.846;2023-03-12T03:30:11;7.65;;;4.50;;
52786;SDS011;38661;53.152;5.846;2023-03-12T03:32:37;7.70;;;5.15;;
52786;SDS011;38661;53.152;5.846;2023-03-12T03:35:03;7.15;;;4.63;;
52786;SDS011;38661;53.152;5.846;2023-03-12T03:37:29;7.72;;;5.05;;
52786;SDS011;38661;53.152;5.846;2023-03-12T03:39:55;5.78;;;4.40;;
52786;SDS011;38661;53.152;5.846;2023-03-12T03:42:20;7.78;;;4.47;;
52786;SDS011;38661;53.152;5.846;2023-03-12T03:44:46;5.75;;;4.80;;
52786;SDS011;38661;53.152;5.846;2023-03-12T03:47:12;7.53;;;4.30;;
52786;SDS011;38661;53.152;5.846;2023-03-12T03:49:37;8.70;;;4.93;;
52786;SDS011;38661;53.152;5.846;2023-03-12T03:52:03;7.38;;;4.60;;
52786;SDS011;38661;53.152;5.846;2023-03-12T03:54:30;9.27;;;4.50;;
52786;SDS011;38661;53.152;5.846;2023-03-12T03:56:56;8.60;;;4.50;;
52786;SDS011;38661;53.152;5.846;2023-03-12T03:59:21;7.97;;;4.18;;
52786;SDS011;38661;53.152;5.846;2023-03-12T04:01:47;7.38;;;4.15;;
52786;SDS011;38661;53.152;5.846;2023-03-12T04:04:13;8.32;;;4.95;;
52786;SDS011;38661;53.152;5.846;2023-03-12T04:06:38;7.65;;;4.32;;
52786;SDS011;38661;53.152;5.846;2023-03-12T04:09:04;10.15;;;4.53;;
52786;SDS011;38661;53.152;5.846;2023-03-12T04:11:30;8.23;;;4.50;;
52786;SDS011;38661;53.152;5.846;2023-03-12T04:13:56;7.72;;;5.03;;
52786;SDS011;38661;53.152;5.846;2023-03-12T04:16:22;6.57;;;4.57;;
52786;SDS011;38661;53.152;5.846;2023-03-12T04:18:48;8.15;;;4.43;;
52786;SDS011;38661;53.152;5.846;2023-03-12T04:21:14;9.10;;;4.38;;
52786;SDS011;38661;53.152;5.846;2023-03-12T04:23:40;7.15;;;4.35;;
52786;SDS011;38661;53.152;5.846;2023-03-12T04:26:06;7.50;;;4.70;;
52786;SDS011;38661;53.152;5.846;2023-03-12T04:28:32;6.30;;;4.70;;
52786;SDS011;38661;53.152;5.846;2023-03-12T04:30:59;8.52;;;4.85;;
52786;SDS011;38661;53.152;5.846;2023-03-12T04:33:27;8.38;;;4.70;;
52786;SDS011;38661;53.152;5.846;2023-03-12T04:35:55;8.85;;;5.15;;
52786;SDS011;38661;53.152;5.846;2023-03-12T04:38:21;6.50;;;5.15;;
52786;SDS011;38661;53.152;5.846;2023-03-12T04:40:58;5.72;;;4.40;;
52786;SDS011;38661;53.152;5.846;2023-03-12T04:43:35;9.18;;;4.93;;
52786;SDS011;38661;53.152;5.846;2023-03-12T04:46:01;8.00;;;4.32;;
52786;SDS011;38661;53.152;5.846;2023-03-12T04:48:28;6.80;;;4.60;;
52786;SDS011;38661;53.152;5.846;2023-03-12T04:50:54;5.72;;;4.15;;
52786;SDS011;38661;53.152;5.846;2023-03-12T04:53:20;9.35;;;4.60;;
52786;SDS011;38661;53.152;5.846;2023-03-12T04:55:46;8.35;;;4.68;;
52786;SDS011;38661;53.152;5.846;2023-03-12T04:58:12;8.60;;;4.80;;
52786;SDS011;38661;53.152;5.846;2023-03-12T05:00:38;7.70;;;4.70;;
52786;SDS011;38661;53.152;5.846;2023-03-12T05:03:04;8.45;;;4.80;;
52786;SDS011;38661;53.152;5.846;2023-03-12T05:05:30;9.00;;;5.40;;
52786;SDS011;38661;53.152;5.846;2023-03-12T05:07:56;7.32;;;5.00;;
52786;SDS011;38661;53.152;5.846;2023-03-12T05:10:22;7.55;;;5.15;;
52786;SDS011;38661;53.152;5.846;2023-03-12T05:12:49;7.03;;;4.40;;
52786;SDS011;38661;53.152;5.846;2023-03-12T05:15:14;9.43;;;4.95;;
52786;SDS011;38661;53.152;5.846;2023-03-12T05:17:42;12.30;;;5.47;;
52786;SDS011;38661;53.152;5.846;2023-03-12T05:20:08;7.95;;;5.72;;
52786;SDS011;38661;53.152;5.846;2023-03-12T05:22:34;8.02;;;4.63;;
52786;SDS011;38661;53.152;5.846;2023-03-12T05:25:01;11.68;;;5.72;;
52786;SDS011;38661;53.152;5.846;2023-03-12T05:27:27;10.60;;;4.75;;
52786;SDS011;38661;53.152;5.846;2023-03-12T05:29:53;12.20;;;5.32;;
52786;SDS011;38661;53.152;5.846;2023-03-12T05:32:18;9.07;;;4.65;;
52786;SDS011;38661;53.152;5.846;2023-03-12T05:34:44;8.30;;;4.38;;
52786;SDS011;38661;53.152;5.846;2023-03-12T05:37:10;7.18;;;4.43;;
52786;SDS011;38661;53.152;5.846;2023-03-12T05:39:36;7.07;;;4.90;;
52786;SDS011;38661;53.152;5.846;2023-03-12T05:42:02;10.60;;;4.75;;
52786;SDS011;38661;53.152;5.846;2023-03-12T05:44:29;10.32;;;4.25;;
52786;SDS011;38661;53.152;5.846;2023-03-12T05:46:54;7.25;;;4.95;;
52786;SDS011;38661;53.152;5.846;2023-03-12T05:49:20;9.35;;;5.30;;
52786;SDS011;38661;53.152;5.846;2023-03-12T05:51:47;8.32;;;4.90;;
52786;SDS011;38661;53.152;5.846;2023-03-12T05:54:14;8.15;;;5.05;;
52786;SDS011;38661;53.152;5.846;2023-03-12T05:56:40;7.18;;;4.80;;
52786;SDS011;38661;53.152;5.846;2023-03-12T05:59:06;11.77;;;6.40;;
52786;SDS011;38661;53.152;5.846;2023-03-12T06:01:34;7.85;;;4.68;;
52786;SDS011;38661;53.152;5.846;2023-03-12T06:04:01;12.32;;;5.18;;
52786;SDS011;38661;53.152;5.846;2023-03-12T06:06:28;12.95;;;5.05;;
52786;SDS011;38661;53.152;5.846;2023-03-12T06:08:55;8.60;;;4.82;;
52786;SDS011;38661;53.152;5.846;2023-03-12T06:11:20;8.45;;;5.18;;
52786;SDS011;38661;53.152;5.846;2023-03-12T06:13:46;11.15;;;5.40;;
52786;SDS011;38661;53.152;5.846;2023-03-12T06:16:20;11.52;;;5.00;;
52786;SDS011;38661;53.152;5.846;2023-03-12T06:18:47;9.85;;;5.75;;
52786;SDS011;38661;53.152;5.846;2023-03-12T06:21:14;8.30;;;5.30;;
52786;SDS011;38661;53.152;5.846;2023-03-12T06:23:42;10.43;;;5.72;;
52786;SDS011;38661;53.152;5.846;2023-03-12T06:26:09;8.27;;;4.57;;
52786;SDS011;38661;53.152;5.846;2023-03-12T06:28:35;7.47;;;5.03;;
52786;SDS011;38661;53.152;5.846;2023-03-12T06:31:02;8.35;;;5.10;;
52786;SDS011;38661;53.152;5.846;2023-03-12T06:33:28;7.93;;;4.82;;
52786;SDS011;38661;53.152;5.846;2023-03-12T06:35:56;9.90;;;4.88;;
52786;SDS011;38661;53.152;5.846;2023-03-12T06:38:23;7.55;;;5.30;;
52786;SDS011;38661;53.152;5.846;2023-03-12T06:41:03;8.15;;;5.50;;
52786;SDS011;38661;53.152;5.846;2023-03-12T06:43:30;9.32;;;5.20;;
52786;SDS011;38661;53.152;5.846;2023-03-12T06:45:57;11.95;;;4.88;;
52786;SDS011;38661;53.152;5.846;2023-03-12T06:48:24;10.10;;;5.47;;
52786;SDS011;38661;53.152;5.846;2023-03-12T06:50:51;8.60;;;5.25;;
52786;SDS011;38661;53.152;5.846;2023-03-12T06:53:17;8.98;;;4.90;;
52786;SDS011;38661;53.152;5.846;2023-03-12T06:55:44;11.30;;;4.65;;
52786;SDS011;38661;53.152;5.846;2023-03-12T06:58:10;9.55;;;5.50;;
52786;SDS011;38661;53.152;5.846;2023-03-12T07:00:36;9.18;;;5.70;;
52786;SDS011;38661;53.152;5.846;2023-03-12T07:03:02;6.57;;;5.10;;
52786;SDS011;38661;53.152;5.846;2023-03-12T07:05:28;8.90;;;5.70;;
52786;SDS011;38661;53.152;5.846;2023-03-12T07:07:54;9.70;;;7.40;;
52786;SDS011;38661;53.152;5.846;2023-03-12T07:10:20;11.70;;;7.10;;
52786;SDS011;38661;53.152;5.846;2023-03-12T07:12:46;9.45;;;7.28;;
52786;SDS011;38661;53.152;5.846;2023-03-12T07:15:12;10.00;;;6.60;;
52786;SDS011;38661;53.152;5.846;2023-03-12T07:17:38;9.55;;;5.75;;
52786;SDS011;38661;53.152;5.846;2023-03-12T07:20:07;9.98;;;7.00;;
52786;SDS011;38661;53.152;5.846;2023-03-12T07:22:33;11.65;;;6.28;;
52786;SDS011;38661;53.152;5.846;2023-03-12T07:24:59;10.30;;;6.13;;
52786;SDS011;38661;53.152;5.846;2023-03-12T07:27:24;8.25;;;6.57;;
52786;SDS011;38661;53.152;5.846;2023-03-12T07:29:50;13.98;;;7.18;;
52786;SDS011;38661;53.152;5.846;2023-03-12T07:32:17;10.32;;;6.55;;
52786;SDS011;38661;53.152;5.846;2023-03-12T07:34:42;10.48;;;6.85;;
52786;SDS011;38661;53.152;5.846;2023-03-12T07:37:08;12.00;;;7.57;;
52786;SDS011;38661;53.152;5.846;2023-03-12T07:39:34;13.65;;;8.10;;
52786;SDS011;38661;53.152;5.846;2023-03-12T07:42:00;11.38;;;6.80;;
52786;SDS011;38661;53.152;5.846;2023-03-12T07:44:25;11.30;;;8.07;;
52786;SDS011;38661;53.152;5.846;2023-03-12T07:46:52;12.48;;;6.65;;
52786;SDS011;38661;53.152;5.846;2023-03-12T07:49:18;14.25;;;7.38;;
52786;SDS011;38661;53.152;5.846;2023-03-12T07:51:44;13.13;;;6.60;;
52786;SDS011;38661;53.152;5.846;2023-03-12T07:54:10;14.05;;;6.50;;
52786;SDS011;38661;53.152;5.846;2023-03-12T07:56:36;9.75;;;6.47;;
52786;SDS011;38661;53.152;5.846;2023-03-12T07:59:02;9.88;;;6.50;;
52786;SDS011;38661;53.152;5.846;2023-03-12T08:01:27;8.50;;;6.95;;
52786;SDS011;38661;53.152;5.846;2023-03-12T08:03:59;10.98;;;6.70;;
52786;SDS011;38661;53.152;5.846;2023-03-12T08:06:26;8.90;;;6.80;;
52786;SDS011;38661;53.152;5.846;2023-03-12T08:08:53;9.38;;;6.65;;
52786;SDS011;38661;53.152;5.846;2023-03-12T08:11:18;11.50;;;8.05;;
52786;SDS011;38661;53.152;5.846;2023-03-12T08:13:44;8.85;;;6.38;;
52786;SDS011;38661;53.152;5.846;2023-03-12T08:16:10;10.75;;;6.82;;
52786;SDS011;38661;53.152;5.846;2023-03-12T08:18:36;10.70;;;7.93;;
52786;SDS011;38661;53.152;5.846;2023-03-12T08:21:02;11.70;;;9.00;;
52786;SDS011;38661;53.152;5.846;2023-03-12T08:23:28;16.35;;;12.00;;
52786;SDS011;38661;53.152;5.846;2023-03-12T08:25:53;19.85;;;11.68;;
52786;SDS011;38661;53.152;5.846;2023-03-12T08:28:20;16.25;;;10.25;;
52786;SDS011;38661;53.152;5.846;2023-03-12T08:30:48;15.63;;;11.35;;
52786;SDS011;38661;53.152;5.846;2023-03-12T08:33:18;16.60;;;11.73;;
52786;SDS011;38661;53.152;5.846;2023-03-12T08:35:45;14.32;;;9.80;;
52786;SDS011;38661;53.152;5.846;2023-03-12T08:38:11;15.20;;;9.52;;
52786;SDS011;38661;53.152;5.846;2023-03-12T08:40:37;21.30;;;15.80;;
52786;SDS011;38661;53.152;5.846;2023-03-12T08:43:03;16.48;;;10.50;;
52786;SDS011;38661;53.152;5.846;2023-03-12T08:45:28;21.13;;;15.38;;
52786;SDS011;38661;53.152;5.846;2023-03-12T08:47:54;18.50;;;13.73;;
52786;SDS011;38661;53.152;5.846;2023-03-12T08:50:20;16.67;;;10.85;;
52786;SDS011;38661;53.152;5.846;2023-03-12T08:52:47;25.42;;;17.88;;
52786;SDS011;38661;53.152;5.846;2023-03-12T08:55:13;13.27;;;9.88;;
52786;SDS011;38661;53.152;5.846;2023-03-12T08:57:38;22.48;;;13.80;;
52786;SDS011;38661;53.152;5.846;2023-03-12T09:00:04;20.65;;;15.00;;
52786;SDS011;38661;53.152;5.846;2023-03-12T09:02:38;19.17;;;12.35;;
52786;SDS011;38661;53.152;5.846;2023-03-12T09:05:06;14.80;;;10.52;;
52786;SDS011;38661;53.152;5.846;2023-03-12T09:07:32;12.68;;;9.55;;
52786;SDS011;38661;53.152;5.846;2023-03-12T09:09:58;14.73;;;10.05;;
52786;SDS011;38661;53.152;5.846;2023-03-12T09:12:24;18.50;;;12.90;;
52786;SDS011;38661;53.152;5.846;2023-03-12T09:14:50;16.30;;;12.25;;
52786;SDS011;38661;53.152;5.846;2023-03-12T09:17:16;13.73;;;10.18;;
52786;SDS011;38661;53.152;5.846;2023-03-12T09:19:42;13.25;;;10.25;;
52786;SDS011;38661;53.152;5.846;2023-03-12T09:22:08;12.80;;;10.52;;
52786;SDS011;38661;53.152;5.846;2023-03-12T09:24:34;13.13;;;8.93;;
52786;SDS011;38661;53.152;5.846;2023-03-12T09:27:00;15.75;;;11.25;;
52786;SDS011;38661;53.152;5.846;2023-03-12T09:29:27;15.45;;;11.02;;
52786;SDS011;38661;53.152;5.846;2023-03-12T09:31:52;16.02;;;12.07;;
52786;SDS011;38661;53.152;5.846;2023-03-12T09:34:18;37.78;;;20.27;;
52786;SDS011;38661;53.152;5.846;2023-03-12T09:36:44;29.23;;;19.08;;
52786;SDS011;38661;53.152;5.846;2023-03-12T09:39:09;25.45;;;18.65;;
52786;SDS011;38661;53.152;5.846;2023-03-12T09:41:37;22.42;;;14.13;;
52786;SDS011;38661;53.152;5.846;2023-03-12T09:50:38;21.15;;;15.45;;
52786;SDS011;38661;53.152;5.846;2023-03-12T09:52:52;27.48;;;18.55;;
52786;SDS011;38661;53.152;5.846;2023-03-12T09:55:26;27.67;;;17.63;;
52786;SDS011;38661;53.152;5.846;2023-03-12T09:57:55;29.35;;;20.73;;
52786;SDS011;38661;53.152;5.846;2023-03-12T10:00:23;17.60;;;13.75;;
52786;SDS011;38661;53.152;5.846;2023-03-12T10:10:41;17.67;;;11.30;;
52786;SDS011;38661;53.152;5.846;2023-03-12T10:16:15;20.13;;;13.27;;
52786;SDS011;38661;53.152;5.846;2023-03-12T10:27:40;17.75;;;13.30;;
52786;SDS011;38661;53.152;5.846;2023-03-12T10:30:17;17.17;;;12.07;;
52786;SDS011;38661;53.152;5.846;2023-03-12T10:32:48;22.10;;;14.68;;
52786;SDS011;38661;53.152;5.846;2023-03-12T10:37:50;16.85;;;12.50;;
52786;SDS011;38661;53.152;5.846;2023-03-12T10:40:25;21.40;;;15.15;;
52786;SDS011;38661;53.152;5.846;2023-03-12T10:42:53;20.67;;;14.25;;
52786;SDS011;38661;53.152;5.846;2023-03-12T10:48:17;21.52;;;14.20;;
52786;SDS011;38661;53.152;5.846;2023-03-12T10:50:58;24.90;;;15.75;;
52786;SDS011;38661;53.152;5.846;2023-03-12T10:53:33;25.63;;;18.00;;
52786;SDS011;38661;53.152;5.846;2023-03-12T10:56:06;26.73;;;17.00;;
52786;SDS011;38661;53.152;5.846;2023-03-12T10:58:36;35.33;;;21.52;;
52786;SDS011;38661;53.152;5.846;2023-03-12T11:01:04;30.20;;;19.40;;
52786;SDS011;38661;53.152;5.846;2023-03-12T11:03:32;34.40;;;21.20;;
52786;SDS011;38661;53.152;5.846;2023-03-12T11:06:01;32.05;;;19.67;;
52786;SDS011;38661;53.152;5.846;2023-03-12T11:08:35;35.58;;;21.65;;
52786;SDS011;38661;53.152;5.846;2023-03-12T11:11:02;127.40;;;56.45;;
52786;SDS011;38661;53.152;5.846;2023-03-12T11:13:36;175.18;;;55.33;;
52786;SDS011;38661;53.152;5.846;2023-03-12T11:18:29;145.98;;;45.53;;
52786;SDS011;38661;53.152;5.846;2023-03-12T11:23:34;251.15;;;67.30;;
52786;SDS011;38661;53.152;5.846;2023-03-12T11:26:11;210.55;;;64.20;;
52786;SDS011;38661;53.152;5.846;2023-03-12T11:29:00;271.40;;;71.38;;
52786;SDS011;38661;53.152;5.846;2023-03-12T11:31:32;102.45;;;47.45;;
52786;SDS011;38661;53.152;5.846;2023-03-12T11:34:04;65.55;;;34.45;;
52786;SDS011;38661;53.152;5.846;2023-03-12T11:50:35;40.03;;;24.27;;
52786;SDS011;38661;53.152;5.846;2023-03-12T11:53:09;37.88;;;22.38;;
52786;SDS011;38661;53.152;5.846;2023-03-12T12:04:02;50.75;;;22.00;;
52786;SDS011;38661;53.152;5.846;2023-03-12T12:32:47;31.67;;;9.93;;
52786;SDS011;38661;53.152;5.846;2023-03-12T12:35:47;33.55;;;8.98;;
52786;SDS011;38661;53.152;5.846;2023-03-12T12:38:26;26.50;;;8.30;;
52786;SDS011;38661;53.152;5.846;2023-03-12T12:46:08;31.58;;;6.55;;
52786;SDS011;38661;53.152;5.846;2023-03-12T12:48:45;34.55;;;7.88;;
52786;SDS011;38661;53.152;5.846;2023-03-12T12:51:18;27.40;;;7.35;;
52786;SDS011;38661;53.152;5.846;2023-03-12T12:57:22;23.95;;;5.90;;
52786;SDS011;38661;53.152;5.846;2023-03-12T12:59:56;20.40;;;6.18;;
52786;SDS011;38661;53.152;5.846;2023-03-12T13:02:43;24.73;;;5.30;;
52786;SDS011;38661;53.152;5.846;2023-03-12T13:07:45;22.73;;;6.30;;
52786;SDS011;38661;53.152;5.846;2023-03-12T13:20:21;27.33;;;5.72;;
52786;SDS011;38661;53.152;5.846;2023-03-12T13:30:57;20.77;;;7.18;;
52786;SDS011;38661;53.152;5.846;2023-03-12T13:33:43;27.20;;;7.47;;
52786;SDS011;38661;53.152;5.846;2023-03-12T13:46:57;29.98;;;6.57;;
52786;SDS011;38661;53.152;5.846;2023-03-12T13:49:26;31.15;;;7.43;;
52786;SDS011;38661;53.152;5.846;2023-03-12T14:00:02;29.95;;;6.80;;
52786;SDS011;38661;53.152;5.846;2023-03-12T14:02:34;27.98;;;6.55;;
52786;SDS011;38661;53.152;5.846;2023-03-12T14:05:09;21.17;;;6.07;;
52786;SDS011;38661;53.152;5.846;2023-03-12T14:10:28;23.83;;;7.38;;
52786;SDS011;38661;53.152;5.846;2023-03-12T14:16:29;26.70;;;6.63;;
52786;SDS011;38661;53.152;5.846;2023-03-12T14:18:59;30.63;;;6.88;;
52786;SDS011;38661;53.152;5.846;2023-03-12T14:21:31;33.13;;;8.38;;
52786;SDS011;38661;53.152;5.846;2023-03-12T14:24:00;24.95;;;6.15;;
52786;SDS011;38661;53.152;5.846;2023-03-12T14:26:32;24.90;;;7.57;;
52786;SDS011;38661;53.152;5.846;2023-03-12T14:29:07;21.48;;;5.88;;
52786;SDS011;38661;53.152;5.846;2023-03-12T14:31:37;34.00;;;8.57;;
52786;SDS011;38661;53.152;5.846;2023-03-12T14:34:16;25.92;;;7.38;;
52786;SDS011;38661;53.152;5.846;2023-03-12T14:39:33;38.13;;;8.32;;
52786;SDS011;38661;53.152;5.846;2023-03-12T14:42:04;22.30;;;6.82;;
52786;SDS011;38661;53.152;5.846;2023-03-12T14:44:32;32.60;;;7.72;;
52786;SDS011;38661;53.152;5.846;2023-03-12T14:47:07;34.53;;;8.80;;
52786;SDS011;38661;53.152;5.846;2023-03-12T14:49:40;29.80;;;8.00;;
52786;SDS011;38661;53.152;5.846;2023-03-12T14:54:36;32.33;;;9.50;;
52786;SDS011;38661;53.152;5.846;2023-03-12T14:57:04;30.92;;;7.40;;
52786;SDS011;38661;53.152;5.846;2023-03-12T14:59:37;22.52;;;5.88;;
52786;SDS011;38661;53.152;5.846;2023-03-12T15:02:10;31.55;;;7.30;;
52786;SDS011;38661;53.152;5.846;2023-03-12T15:04:36;30.10;;;7.68;;
52786;SDS011;38661;53.152;5.846;2023-03-12T15:07:03;27.77;;;8.50;;
52786;SDS011;38661;53.152;5.846;2023-03-12T15:09:34;30.50;;;7.65;;
52786;SDS011;38661;53.152;5.846;2023-03-12T15:12:01;26.50;;;7.28;;
52786;SDS011;38661;53.152;5.846;2023-03-12T15:14:31;26.73;;;6.28;;
52786;SDS011;38661;53.152;5.846;2023-03-12T15:16:59;39.80;;;8.32;;
52786;SDS011;38661;53.152;5.846;2023-03-12T15:19:28;29.73;;;9.48;;
52786;SDS011;38661;53.152;5.846;2023-03-12T15:21:57;29.13;;;8.00;;
52786;SDS011;38661;53.152;5.846;2023-03-12T15:24:24;34.25;;;8.13;;
52786;SDS011;38661;53.152;5.846;2023-03-12T15:26:50;33.33;;;8.15;;
52786;SDS011;38661;53.152;5.846;2023-03-12T15:29:23;29.38;;;7.75;;
52786;SDS011;38661;53.152;5.846;2023-03-12T15:31:51;35.72;;;8.27;;
52786;SDS011;38661;53.152;5.846;2023-03-12T15:34:31;31.35;;;7.20;;
52786;SDS011;38661;53.152;5.846;2023-03-12T15:36:59;33.17;;;8.50;;
52786;SDS011;38661;53.152;5.846;2023-03-12T15:42:08;37.50;;;11.93;;
52786;SDS011;38661;53.152;5.846;2023-03-12T15:44:43;27.70;;;7.53;;
52786;SDS011;38661;53.152;5.846;2023-03-12T15:47:22;26.83;;;7.65;;
52786;SDS011;38661;53.152;5.846;2023-03-12T15:49:57;27.95;;;8.30;;
52786;SDS011;38661;53.152;5.846;2023-03-12T15:52:27;34.95;;;7.82;;
52786;SDS011;38661;53.152;5.846;2023-03-12T15:57:43;33.88;;;7.40;;
52786;SDS011;38661;53.152;5.846;2023-03-12T16:03:13;33.85;;;7.38;;
52786;SDS011;38661;53.152;5.846;2023-03-12T16:05:43;31.52;;;7.43;;
52786;SDS011;38661;53.152;5.846;2023-03-12T16:10:45;30.60;;;6.80;;
52786;SDS011;38661;53.152;5.846;2023-03-12T16:13:14;37.03;;;8.35;;
52786;SDS011;38661;53.152;5.846;2023-03-12T16:15:41;35.60;;;7.32;;
52786;SDS011;38661;53.152;5.846;2023-03-12T16:18:11;30.77;;;8.35;;
52786;SDS011;38661;53.152;5.846;2023-03-12T16:20:42;38.13;;;9.35;;
52786;SDS011;38661;53.152;5.846;2023-03-12T16:23:08;38.88;;;9.82;;
52786;SDS011;38661;53.152;5.846;2023-03-12T16:25:34;45.90;;;10.70;;
52786;SDS011;38661;53.152;5.846;2023-03-12T16:28:01;44.55;;;11.27;;
52786;SDS011;38661;53.152;5.846;2023-03-12T16:30:33;32.00;;;8.15;;
52786;SDS011;38661;53.152;5.846;2023-03-12T16:33:01;39.60;;;9.00;;
52786;SDS011;38661;53.152;5.846;2023-03-12T16:35:29;33.65;;;8.52;;
52786;SDS011;38661;53.152;5.846;2023-03-12T16:37:56;34.28;;;8.10;;
52786;SDS011;38661;53.152;5.846;2023-03-12T16:40:25;39.03;;;8.40;;
52786;SDS011;38661;53.152;5.846;2023-03-12T16:42:57;32.40;;;7.05;;
52786;SDS011;38661;53.152;5.846;2023-03-12T16:45:26;35.58;;;9.85;;
52786;SDS011;38661;53.152;5.846;2023-03-12T16:47:53;34.13;;;8.70;;
52786;SDS011;38661;53.152;5.846;2023-03-12T16:50:22;37.40;;;9.77;;
52786;SDS011;38661;53.152;5.846;2023-03-12T16:52:48;35.22;;;7.25;;
52786;SDS011;38661;53.152;5.846;2023-03-12T16:55:18;34.10;;;8.95;;
52786;SDS011;38661;53.152;5.846;2023-03-12T16:57:52;36.30;;;8.77;;
52786;SDS011;38661;53.152;5.846;2023-03-12T17:00:21;43.72;;;10.68;;
52786;SDS011;38661;53.152;5.846;2023-03-12T17:02:49;33.47;;;9.05;;
52786;SDS011;38661;53.152;5.846;2023-03-12T17:05:19;37.42;;;8.45;;
52786;SDS011;38661;53.152;5.846;2023-03-12T17:07:45;38.72;;;7.55;;
52786;SDS011;38661;53.152;5.846;2023-03-12T17:10:11;30.80;;;7.35;;
52786;SDS011;38661;53.152;5.846;2023-03-12T17:12:39;34.00;;;8.07;;
52786;SDS011;38661;53.152;5.846;2023-03-12T17:15:12;35.13;;;7.13;;
52786;SDS011;38661;53.152;5.846;2023-03-12T17:17:50;46.42;;;9.10;;
52786;SDS011;38661;53.152;5.846;2023-03-12T17:20:18;49.25;;;10.23;;
52786;SDS011;38661;53.152;5.846;2023-03-12T17:22:45;34.40;;;8.10;;